Time;durP1;ratioP1;P1;durP2;ratioP2;P2;SDS_P1;SDS_P2;PMS_P1;PMS_P2;Temp;Humidity;BMP_temperature;BMP_pressure;BME280_temperature;BME280_humidity;BME280_pressure;Samples;Min_cycle;Max_cycle;Signal;HPM_P1;HPM_P2
2022/02/20 00:01:54;;;;;;;18.90;7.70;;;;;;;3.96;52.33;99783.46;130397;1267;108781;-79
2022/02/20 00:05:00;;;;;;;13.70;5.70;;;;;;;3.92;52.17;99785.10;130373;1267;107575;-77
2022/02/20 00:08:06;;;;;;;9.40;3.80;;;;;;;3.90;52.25;99780.90;130366;1267;108715;-77
2022/02/20 00:11:11;;;;;;;8.70;3.50;;;;;;;3.87;52.18;99780.95;130321;1267;109057;-79
2022/02/20 00:14:16;;;;;;;9.90;3.90;;;;;;;3.84;52.45;99779.80;130349;1267;108945;-76
2022/02/20 00:17:22;;;;;;;9.30;3.40;;;;;;;3.83;52.39;99774.27;130356;1267;108716;-79
2022/02/20 00:20:30;;;;;;;7.70;3.30;;;;;;;3.80;52.43;99776.57;130356;1267;108713;-76
2022/02/20 00:23:35;;;;;;;7.80;3.60;;;;;;;3.74;52.44;99777.20;130558;1267;108733;-76
2022/02/20 00:26:41;;;;;;;7.80;3.00;;;;;;;3.71;52.66;99774.83;130503;1267;108654;-76
2022/02/20 00:29:46;;;;;;;8.70;3.60;;;;;;;3.67;52.50;99776.17;130537;1267;108886;-78
2022/02/20 00:32:52;;;;;;;7.80;3.40;;;;;;;3.63;52.62;99776.67;130769;1267;108700;-78
2022/02/20 00:35:58;;;;;;;7.70;2.90;;;;;;;3.58;52.74;99779.73;130469;1267;108844;-78
2022/02/20 00:39:03;;;;;;;9.20;3.40;;;;;;;3.52;52.85;99779.64;130458;1266;108708;-85
2022/02/20 00:42:10;;;;;;;6.80;3.10;;;;;;;3.49;52.77;99774.92;130409;1267;108987;-83
2022/02/20 00:45:16;;;;;;;7.70;3.40;;;;;;;3.45;53.01;99774.20;130519;1267;108240;-80
2022/02/20 00:48:22;;;;;;;6.60;2.90;;;;;;;3.39;53.05;99768.19;130431;1267;108853;-84
2022/02/20 00:51:27;;;;;;;8.30;3.00;;;;;;;3.34;53.09;99767.52;130433;1267;107757;-82
2022/02/20 00:54:33;;;;;;;11.40;4.20;;;;;;;3.30;53.23;99762.38;130521;1267;109038;-82
2022/02/20 00:57:39;;;;;;;7.70;3.60;;;;;;;3.25;53.22;99757.67;130439;1267;108791;-84
2022/02/20 01:00:45;;;;;;;10.10;3.80;;;;;;;3.20;53.44;99762.96;130491;1267;108826;-80
2022/02/20 01:03:51;;;;;;;10.70;4.00;;;;;;;3.18;53.53;99762.77;130372;1266;108806;-77
2022/02/20 01:06:58;;;;;;;9.30;4.10;;;;;;;3.17;53.63;99754.45;130389;1267;108770;-77
2022/02/20 01:10:06;;;;;;;9.60;3.70;;;;;;;3.18;53.60;99751.72;130236;1267;108714;-85
2022/02/20 01:13:11;;;;;;;11.50;4.30;;;;;;;3.20;53.58;99743.14;130599;1267;108825;-77
2022/02/20 01:16:18;;;;;;;11.00;3.90;;;;;;;3.21;53.54;99740.21;130375;1266;108855;-78
2022/02/20 01:19:24;;;;;;;10.80;3.80;;;;;;;3.20;53.67;99747.02;130378;1267;108813;-78
2022/02/20 01:22:30;;;;;;;11.60;4.60;;;;;;;3.19;53.75;99743.39;130429;1267;108903;-78
2022/02/20 01:25:35;;;;;;;8.60;3.90;;;;;;;3.21;53.80;99742.52;130342;1267;108817;-78
2022/02/20 01:28:41;;;;;;;10.10;3.70;;;;;;;3.26;53.81;99736.13;130332;1267;108732;-79
2022/02/20 01:31:47;;;;;;;8.50;4.00;;;;;;;3.30;53.94;99733.00;130343;1267;108766;-78
2022/02/20 01:34:52;;;;;;;10.20;4.20;;;;;;;3.32;53.96;99723.88;130378;1267;108675;-78
2022/02/20 01:37:58;;;;;;;12.60;4.20;;;;;;;3.36;53.97;99719.38;130341;1267;108831;-79
2022/02/20 01:41:07;;;;;;;8.80;3.80;;;;;;;3.39;53.99;99702.58;130406;1267;108714;-76
2022/02/20 01:44:13;;;;;;;10.80;3.60;;;;;;;3.42;53.96;99709.79;130307;1267;108777;-77
2022/02/20 01:47:23;;;;;;;9.30;3.70;;;;;;;3.44;53.97;99701.34;130301;1267;108757;-79
2022/02/20 01:50:28;;;;;;;10.30;4.10;;;;;;;3.46;53.96;99697.13;130291;1267;108075;-78
2022/02/20 01:53:34;;;;;;;8.90;3.60;;;;;;;3.43;53.92;99685.98;130427;1267;108788;-78
2022/02/20 01:56:40;;;;;;;9.70;3.50;;;;;;;3.38;53.89;99682.68;130219;1267;107703;-79
2022/02/20 01:59:57;;;;;;;10.70;3.90;;;;;;;3.32;54.09;99680.98;130330;1267;108720;-77
2022/02/20 02:03:21;;;;;;;7.50;3.40;;;;;;;3.28;54.14;99672.56;130342;1267;108989;-79
2022/02/20 02:06:37;;;;;;;7.90;3.90;;;;;;;3.23;53.98;99669.60;130303;1266;109734;-78
2022/02/20 02:09:44;;;;;;;9.00;3.40;;;;;;;3.19;54.04;99668.30;130365;1267;108868;-78
2022/02/20 02:13:08;;;;;;;11.10;3.90;;;;;;;3.15;53.96;99658.72;130286;1267;108762;-79
2022/02/20 02:16:22;;;;;;;9.30;3.70;;;;;;;3.10;54.05;99660.61;130364;1267;108913;-77
2022/02/20 02:19:33;;;;;;;11.80;3.70;;;;;;;3.05;54.00;99653.41;130343;1267;108920;-77
2022/02/20 02:22:48;;;;;;;11.40;3.50;;;;;;;3.00;54.17;99646.20;130297;1267;109510;-76
2022/02/20 02:26:09;;;;;;;8.40;3.30;;;;;;;2.96;54.30;99639.84;130261;1267;108771;-77
2022/02/20 02:29:33;;;;;;;9.70;3.70;;;;;;;2.92;54.27;99627.17;130301;1267;109134;-74
2022/02/20 02:32:39;;;;;;;10.50;4.40;;;;;;;2.87;54.28;99624.59;130322;1267;108958;-75
2022/02/20 02:35:44;;;;;;;7.90;3.80;;;;;;;2.82;54.16;99625.02;130240;1266;107472;-73
2022/02/20 02:38:50;;;;;;;8.00;3.70;;;;;;;2.75;54.38;99623.41;130328;1267;107933;-76
2022/02/20 02:41:58;;;;;;;8.90;3.90;;;;;;;2.68;54.50;99626.01;130335;1266;107713;-75
2022/02/20 02:45:09;;;;;;;9.60;3.80;;;;;;;2.64;54.44;99621.26;130308;1267;108718;-75
2022/02/20 02:48:14;;;;;;;9.50;3.70;;;;;;;2.62;54.65;99615.13;130319;1266;108830;-75
2022/02/20 02:51:20;;;;;;;11.00;3.80;;;;;;;2.59;54.80;99607.42;130234;1267;109263;-75
2022/02/20 02:54:26;;;;;;;9.00;3.70;;;;;;;2.57;54.75;99604.06;130250;1267;107065;-77
2022/02/20 02:57:33;;;;;;;9.40;3.70;;;;;;;2.56;54.90;99601.01;130331;1267;108919;-78
2022/02/20 03:00:39;;;;;;;10.10;3.50;;;;;;;2.55;54.86;99598.45;130360;1267;108840;-79
2022/02/20 03:03:45;;;;;;;7.80;3.80;;;;;;;2.53;55.05;99592.63;130294;1268;108936;-79
2022/02/20 03:06:50;;;;;;;10.00;4.10;;;;;;;2.52;55.06;99593.91;130350;1267;108745;-77
2022/02/20 03:09:56;;;;;;;9.20;3.50;;;;;;;2.52;55.05;99591.08;130382;1267;108873;-76
2022/02/20 03:13:02;;;;;;;8.90;3.90;;;;;;;2.52;55.06;99590.20;130288;1267;108733;-78
2022/02/20 03:16:08;;;;;;;9.20;4.20;;;;;;;2.53;55.06;99601.24;130362;1267;108832;-79
2022/02/20 03:19:14;;;;;;;8.90;3.80;;;;;;;2.53;55.19;99599.58;130290;1267;107900;-79
2022/02/20 03:22:20;;;;;;;7.60;3.70;;;;;;;2.56;55.28;99586.75;130475;1267;108782;-79
2022/02/20 03:25:25;;;;;;;8.00;3.40;;;;;;;2.59;55.16;99582.17;130472;1266;108664;-79
2022/02/20 03:28:33;;;;;;;8.10;3.50;;;;;;;2.59;55.30;99582.30;130452;1267;108984;-78
2022/02/20 03:31:42;;;;;;;8.60;3.90;;;;;;;2.63;55.33;99582.55;130348;1267;108906;-78
2022/02/20 03:34:48;;;;;;;10.00;3.90;;;;;;;2.66;55.16;99572.30;130390;1267;108644;-77
2022/02/20 03:37:54;;;;;;;8.50;3.90;;;;;;;2.69;55.30;99566.26;130411;1267;108960;-77
2022/02/20 03:41:06;;;;;;;9.10;4.10;;;;;;;2.71;55.33;99554.13;130328;1267;108877;-75
2022/02/20 03:44:17;;;;;;;10.40;4.10;;;;;;;2.74;55.38;99553.24;130311;1267;109059;-76
2022/02/20 03:47:44;;;;;;;10.00;4.10;;;;;;;2.78;55.27;99542.92;130310;1267;108724;-78
2022/02/20 03:50:50;;;;;;;8.30;4.00;;;;;;;2.82;55.30;99535.20;130327;1267;108971;-78
2022/02/20 03:53:56;;;;;;;10.70;4.00;;;;;;;2.84;55.20;99522.38;130286;1267;108885;-78
2022/02/20 03:57:01;;;;;;;8.70;4.30;;;;;;;2.86;55.37;99518.55;130243;1267;108873;-77
2022/02/20 04:00:28;;;;;;;9.10;3.90;;;;;;;2.88;55.40;99522.48;130276;1267;107651;-76
2022/02/20 04:03:54;;;;;;;9.80;4.30;;;;;;;2.90;55.48;99512.98;130329;1267;110563;-77
2022/02/20 04:07:00;;;;;;;10.60;4.10;;;;;;;2.92;55.38;99511.77;130348;1267;108630;-78
2022/02/20 04:10:08;;;;;;;11.50;4.20;;;;;;;2.96;55.35;99506.19;130332;1266;108746;-77
2022/02/20 04:13:13;;;;;;;11.30;4.30;;;;;;;2.98;55.57;99501.80;130522;1267;108794;-81
2022/02/20 04:16:26;;;;;;;13.00;4.40;;;;;;;3.00;55.53;99490.06;130364;1267;108655;-76
2022/02/20 04:19:33;;;;;;;9.90;4.00;;;;;;;3.02;55.39;99484.44;130392;1267;108950;-75
2022/02/20 04:22:39;;;;;;;9.80;4.60;;;;;;;3.06;55.47;99482.21;130317;1267;108866;-77
2022/02/20 04:25:45;;;;;;;11.00;4.20;;;;;;;3.06;55.65;99481.09;130367;1266;108889;-78
2022/02/20 04:28:51;;;;;;;9.00;3.90;;;;;;;3.07;55.57;99476.95;130330;1268;108719;-78
2022/02/20 04:31:57;;;;;;;8.40;4.30;;;;;;;3.10;55.58;99474.09;130484;1267;108788;-74
2022/02/20 04:35:04;;;;;;;9.90;4.30;;;;;;;3.14;55.70;99461.11;130309;1268;108744;-76
2022/02/20 04:38:10;;;;;;;9.80;4.30;;;;;;;3.18;55.67;99455.24;130393;1268;108892;-78
2022/02/20 04:41:15;;;;;;;10.90;4.20;;;;;;;3.22;55.47;99454.89;130339;1267;108867;-77
2022/02/20 04:44:21;;;;;;;9.50;4.30;;;;;;;3.25;55.56;99455.16;130299;1268;107665;-75
2022/02/20 04:47:28;;;;;;;9.00;4.10;;;;;;;3.28;55.62;99454.77;130305;1268;109080;-75
2022/02/20 04:50:34;;;;;;;9.00;4.60;;;;;;;3.31;55.57;99450.63;130271;1268;107048;-79
2022/02/20 04:53:51;;;;;;;10.70;4.30;;;;;;;3.34;55.67;99448.96;130314;1268;108931;-78
2022/02/20 04:56:57;;;;;;;14.40;4.70;;;;;;;3.36;55.70;99447.79;130323;1268;108692;-76
2022/02/20 05:00:04;;;;;;;9.80;4.50;;;;;;;3.38;55.63;99445.86;130613;1266;109084;-77
2022/02/20 05:03:28;;;;;;;12.20;5.30;;;;;;;3.38;55.70;99443.00;130488;1268;108699;-77
2022/02/20 05:07:08;;;;;;;12.70;6.60;;;;;;;3.38;55.85;99434.73;130415;1266;107526;-77
2022/02/20 05:10:17;;;;;;;12.90;6.00;;;;;;;3.42;55.73;99427.95;130633;1266;109282;-77
2022/02/20 05:13:22;;;;;;;12.10;6.00;;;;;;;3.43;55.81;99432.11;130454;1267;108791;-76
2022/02/20 05:16:30;;;;;;;9.10;4.70;;;;;;;3.44;55.74;99429.86;130456;1267;108934;-78
2022/02/20 05:19:36;;;;;;;11.60;4.70;;;;;;;3.46;55.79;99430.34;130506;1267;108849;-78
2022/02/20 05:22:42;;;;;;;10.90;5.40;;;;;;;3.50;55.70;99435.17;130303;1267;109144;-78
2022/02/20 05:25:52;;;;;;;11.40;5.90;;;;;;;3.53;55.57;99432.80;130249;1268;108714;-77
2022/02/20 05:28:58;;;;;;;26.60;13.70;;;;;;;3.56;55.72;99436.97;130506;1267;108659;-76
2022/02/20 05:32:04;;;;;;;77.40;42.30;;;;;;;3.56;55.76;99433.08;130403;1267;107660;-79
2022/02/20 05:35:22;;;;;;;38.80;20.10;;;;;;;3.56;55.71;99431.34;130339;1267;108688;-81
2022/02/20 05:38:28;;;;;;;26.10;13.90;;;;;;;3.56;55.59;99431.70;130484;1267;108817;-81
2022/02/20 05:41:33;;;;;;;44.00;21.70;;;;;;;3.52;55.82;99430.55;130450;1267;108815;-81
2022/02/20 05:44:39;;;;;;;19.60;9.70;;;;;;;3.48;55.75;99420.70;130512;1266;108664;-80
2022/02/20 05:47:44;;;;;;;13.20;5.80;;;;;;;3.46;55.86;99411.44;130632;1267;109763;-79
2022/02/20 05:50:51;;;;;;;23.10;14.90;;;;;;;3.46;56.02;99402.58;130462;1266;107728;-79
2022/02/20 05:53:57;;;;;;;41.20;20.10;;;;;;;3.44;56.02;99386.95;130361;1266;108856;-78
2022/02/20 05:57:04;;;;;;;29.60;13.10;;;;;;;3.44;56.06;99382.94;130404;1267;108832;-79
2022/02/20 06:00:15;;;;;;;36.00;16.70;;;;;;;3.44;56.14;99374.28;130485;1267;108823;-79
2022/02/20 06:03:33;;;;;;;18.00;8.50;;;;;;;3.44;56.17;99370.11;130448;1266;108896;-78
2022/02/20 06:07:10;;;;;;;13.40;6.00;;;;;;;3.46;56.31;99373.27;130382;1267;108917;-76
2022/02/20 06:10:30;;;;;;;12.90;5.90;;;;;;;3.49;56.29;99370.33;130539;1267;108790;-76
2022/02/20 06:13:53;;;;;;;15.00;5.50;;;;;;;3.53;56.28;99369.45;130284;1267;108854;-78
2022/02/20 06:17:16;;;;;;;13.40;5.40;;;;;;;3.57;56.22;99364.79;130387;1267;109004;-77
2022/02/20 06:20:48;;;;;;;11.70;6.00;;;;;;;3.62;56.28;99362.98;130515;1266;108745;-77
2022/02/20 06:24:10;;;;;;;11.30;5.30;;;;;;;3.65;56.33;99364.98;130574;1267;108876;-74
2022/02/20 06:27:34;;;;;;;14.70;6.90;;;;;;;3.70;56.25;99360.30;130359;1266;107793;-76
2022/02/20 06:30:39;;;;;;;16.00;7.20;;;;;;;3.76;56.15;99353.85;130390;1266;109025;-76
2022/02/20 06:33:51;;;;;;;15.20;7.60;;;;;;;3.79;56.26;99346.69;130495;1266;109121;-77
2022/02/20 06:36:57;;;;;;;21.50;9.80;;;;;;;3.81;56.03;99341.61;130608;1266;109314;-76
2022/02/20 06:40:02;;;;;;;49.60;20.20;;;;;;;3.83;56.06;99337.08;130333;1267;108924;-76
2022/02/20 06:43:09;;;;;;;33.00;13.10;;;;;;;3.86;56.02;99333.11;130436;1267;108853;-77
2022/02/20 06:46:17;;;;;;;16.90;8.00;;;;;;;3.87;56.04;99331.27;130540;1266;108816;-78
2022/02/20 06:49:34;;;;;;;14.90;7.40;;;;;;;3.81;55.99;99321.88;130611;1267;108833;-81
2022/02/20 06:52:40;;;;;;;14.00;7.20;;;;;;;3.89;55.92;99329.67;130809;1267;108898;-77
2022/02/20 06:56:16;;;;;;;17.70;7.30;;;;;;;3.90;56.05;99328.11;130524;1266;108768;-77
2022/02/20 06:59:22;;;;;;;48.70;25.70;;;;;;;3.96;56.00;99325.05;130474;1266;108640;-78
2022/02/20 07:02:27;;;;;;;20.60;10.40;;;;;;;4.02;56.08;99320.65;130399;1267;108842;-80
2022/02/20 07:05:33;;;;;;;28.60;13.10;;;;;;;4.07;55.92;99325.47;130585;1267;108800;-77
2022/02/20 07:08:39;;;;;;;19.80;9.20;;;;;;;4.09;55.96;99322.43;130670;1267;108962;-75
2022/02/20 07:11:45;;;;;;;31.20;14.00;;;;;;;4.14;56.03;99323.30;131018;1266;109537;-77
2022/02/20 07:14:51;;;;;;;51.60;22.20;;;;;;;4.22;56.00;99323.42;130515;1267;108693;-77
2022/02/20 07:17:57;;;;;;;34.00;15.50;;;;;;;4.31;55.87;99321.09;130554;1267;108893;-76
2022/02/20 07:21:03;;;;;;;21.10;9.80;;;;;;;4.39;55.93;99317.06;130465;1266;108617;-78
2022/02/20 07:24:09;;;;;;;19.60;9.00;;;;;;;4.46;55.90;99312.02;130439;1265;109075;-79
2022/02/20 07:27:14;;;;;;;16.40;7.40;;;;;;;4.54;55.64;99305.86;130528;1266;108447;-77
2022/02/20 07:30:20;;;;;;;21.20;11.60;;;;;;;4.62;55.69;99298.08;130449;1267;108956;-80
2022/02/20 07:33:26;;;;;;;13.60;7.20;;;;;;;4.68;55.54;99292.07;130471;1267;108914;-79
2022/02/20 07:36:31;;;;;;;16.60;7.50;;;;;;;4.76;55.59;99286.59;130429;1266;108908;-79
2022/02/20 07:39:37;;;;;;;17.00;8.50;;;;;;;4.85;55.52;99285.38;130445;1265;108778;-76
2022/02/20 07:42:42;;;;;;;14.40;6.60;;;;;;;5.00;55.42;99282.92;130489;1266;108794;-83
2022/02/20 07:45:50;;;;;;;13.30;7.00;;;;;;;5.17;55.37;99286.93;130418;1267;108908;-81
2022/02/20 07:48:57;;;;;;;14.80;6.70;;;;;;;5.31;55.37;99289.30;130406;1266;108162;-81
2022/02/20 07:52:03;;;;;;;13.40;6.90;;;;;;;5.41;55.24;99284.81;130442;1265;108725;-76
2022/02/20 07:55:10;;;;;;;13.30;6.10;;;;;;;5.44;55.16;99280.81;130510;1267;108945;-80
2022/02/20 07:58:17;;;;;;;14.30;6.20;;;;;;;5.45;54.87;99274.02;130506;1267;107753;-78
2022/02/20 08:01:22;;;;;;;29.60;16.20;;;;;;;5.41;55.08;99276.35;130436;1267;108760;-77
2022/02/20 08:04:27;;;;;;;24.00;13.50;;;;;;;5.37;54.85;99278.84;130464;1266;107478;-78
2022/02/20 08:07:33;;;;;;;30.20;16.40;;;;;;;5.36;55.04;99281.46;130727;1267;108621;-80
2022/02/20 08:10:38;;;;;;;44.10;27.60;;;;;;;5.32;54.86;99278.43;130958;1267;108735;-76
2022/02/20 08:13:44;;;;;;;41.60;26.00;;;;;;;5.31;54.82;99277.11;130665;1267;107797;-76
2022/02/20 08:16:49;;;;;;;16.20;9.30;;;;;;;5.31;54.93;99276.21;130514;1266;108733;-77
2022/02/20 08:19:55;;;;;;;12.90;7.70;;;;;;;5.30;54.96;99269.95;130421;1267;108945;-77
2022/02/20 08:23:00;;;;;;;30.30;20.60;;;;;;;5.30;55.06;99277.35;130460;1267;108662;-75
2022/02/20 08:26:06;;;;;;;33.80;17.80;;;;;;;5.31;54.86;99270.75;130490;1267;108785;-77
2022/02/20 08:29:11;;;;;;;32.50;18.70;;;;;;;5.35;55.15;99279.59;130401;1267;108938;-76
2022/02/20 08:32:16;;;;;;;40.00;22.20;;;;;;;5.42;55.22;99278.93;130496;1268;108951;-75
2022/02/20 08:35:22;;;;;;;128.00;48.90;;;;;;;5.45;55.31;99281.45;130614;1268;108796;-74
2022/02/20 08:38:27;;;;;;;540.80;188.30;;;;;;;5.49;55.77;99279.77;130410;1268;108756;-75
2022/02/20 08:41:35;;;;;;;185.40;59.30;;;;;;;5.58;55.75;99273.91;130410;1268;108908;-76
2022/02/20 08:44:43;;;;;;;39.20;15.40;;;;;;;5.65;55.89;99276.79;130546;1268;108884;-73
2022/02/20 08:47:48;;;;;;;50.00;24.30;;;;;;;5.70;56.10;99268.83;130513;1266;108838;-70
2022/02/20 08:50:54;;;;;;;68.20;32.40;;;;;;;5.79;56.25;99267.65;130289;1268;108724;-71
2022/02/20 08:53:59;;;;;;;65.20;28.90;;;;;;;5.86;56.20;99267.99;130350;1268;108951;-70
2022/02/20 08:57:08;;;;;;;57.00;32.00;;;;;;;5.90;56.52;99267.61;130498;1266;108817;-75
2022/02/20 09:00:15;;;;;;;12.30;6.40;;;;;;;5.93;56.56;99268.33;130437;1268;110009;-72
2022/02/20 09:03:21;;;;;;;11.00;4.80;;;;;;;5.91;56.74;99269.34;130490;1268;109760;-78
2022/02/20 09:06:26;;;;;;;14.20;8.60;;;;;;;5.92;57.26;99269.28;130484;1268;108779;-78
2022/02/20 09:09:32;;;;;;;14.80;9.40;;;;;;;5.96;57.54;99267.29;130414;1267;108721;-75
2022/02/20 09:12:39;;;;;;;34.20;20.40;;;;;;;6.01;57.77;99264.50;130429;1268;108667;-83
2022/02/20 09:15:45;;;;;;;28.70;16.50;;;;;;;6.08;57.94;99258.20;130396;1268;109215;-72
2022/02/20 09:18:50;;;;;;;79.50;49.30;;;;;;;6.13;58.21;99260.16;130444;1268;108795;-72
2022/02/20 09:21:56;;;;;;;20.70;11.00;;;;;;;6.23;58.35;99265.86;130434;1266;109072;-72
2022/02/20 09:25:02;;;;;;;53.60;34.20;;;;;;;6.26;58.37;99264.57;130434;1266;107244;-70
2022/02/20 09:28:08;;;;;;;16.90;10.00;;;;;;;6.28;58.60;99268.98;130471;1267;108779;-72
2022/02/20 09:31:14;;;;;;;64.20;42.50;;;;;;;6.25;58.69;99265.35;130461;1267;106899;-70
2022/02/20 09:34:20;;;;;;;34.20;23.70;;;;;;;6.20;59.01;99264.24;130253;1267;108849;-71
2022/02/20 09:37:26;;;;;;;58.20;38.30;;;;;;;6.18;58.84;99266.20;130284;1266;108864;-72
2022/02/20 09:40:33;;;;;;;26.90;16.50;;;;;;;6.18;58.98;99271.17;130481;1267;108773;-69
2022/02/20 09:43:41;;;;;;;20.20;14.20;;;;;;;6.18;59.29;99268.88;130533;1266;108721;-72
2022/02/20 09:46:47;;;;;;;9.50;5.80;;;;;;;6.16;59.49;99272.27;130810;1265;108790;-72
2022/02/20 09:49:57;;;;;;;17.60;12.40;;;;;;;6.09;59.49;99275.90;130590;1267;108601;-73
2022/02/20 09:53:02;;;;;;;75.90;25.20;;;;;;;6.07;59.63;99271.73;130413;1267;106740;-73
2022/02/20 09:56:08;;;;;;;66.20;32.30;;;;;;;5.99;59.64;99270.69;130299;1267;108739;-72
2022/02/20 09:59:14;;;;;;;11.60;6.10;;;;;;;5.95;59.64;99270.25;130519;1267;108771;-77
2022/02/20 10:02:21;;;;;;;38.20;22.00;;;;;;;5.90;60.07;99266.09;130559;1267;108845;-77
2022/02/20 10:05:26;;;;;;;26.80;14.20;;;;;;;5.85;59.80;99270.09;130547;1266;108789;-77
2022/02/20 10:08:38;;;;;;;85.10;41.00;;;;;;;5.86;60.13;99277.16;130562;1267;107665;-79
2022/02/20 10:11:45;;;;;;;87.10;48.40;;;;;;;5.84;60.17;99282.89;130480;1267;108806;-79
2022/02/20 10:14:50;;;;;;;12.70;8.40;;;;;;;5.77;60.38;99288.46;130418;1266;108710;-77
2022/02/20 10:18:10;;;;;;;7.30;4.10;;;;;;;5.74;60.42;99281.55;130431;1267;108947;-73
2022/02/20 10:21:36;;;;;;;24.20;10.30;;;;;;;5.78;60.40;99281.87;130404;1267;108658;-71
2022/02/20 10:25:00;;;;;;;15.30;8.50;;;;;;;5.84;60.49;99280.11;130530;1267;108798;-72
2022/02/20 10:28:26;;;;;;;81.30;42.10;;;;;;;5.91;60.71;99279.77;130311;1267;107146;-71
2022/02/20 10:31:43;;;;;;;44.30;24.10;;;;;;;5.92;60.85;99276.00;130271;1267;109029;-70
2022/02/20 10:34:52;;;;;;;53.00;31.60;;;;;;;5.92;61.01;99276.83;130504;1266;108743;-75
2022/02/20 10:37:59;;;;;;;29.40;17.50;;;;;;;5.91;60.91;99277.31;130468;1267;107459;-71
2022/02/20 10:41:06;;;;;;;19.50;12.50;;;;;;;5.89;60.99;99279.41;130507;1265;108809;-72
2022/02/20 10:44:12;;;;;;;16.60;9.80;;;;;;;5.87;61.18;99274.39;130567;1267;108658;-72
2022/02/20 10:47:18;;;;;;;23.00;14.60;;;;;;;5.85;61.14;99276.73;130473;1267;109150;-73
2022/02/20 10:50:26;;;;;;;25.30;15.20;;;;;;;5.84;61.43;99267.81;130550;1267;108893;-76
2022/02/20 10:53:34;;;;;;;18.60;10.60;;;;;;;5.86;61.34;99270.88;130468;1267;108886;-71
2022/02/20 10:56:44;;;;;;;44.50;20.70;;;;;;;5.86;61.95;99268.00;130474;1267;108340;-70
2022/02/20 10:59:52;;;;;;;62.00;34.70;;;;;;;5.87;61.61;99264.23;130521;1267;108661;-71
2022/02/20 11:03:11;;;;;;;68.50;34.20;;;;;;;5.98;61.62;99264.48;130451;1266;108555;-73
2022/02/20 11:06:18;;;;;;;58.40;26.80;;;;;;;6.03;61.82;99264.70;130394;1267;108713;-73
2022/02/20 11:09:23;;;;;;;43.30;19.40;;;;;;;6.01;62.09;99266.14;130658;1265;108576;-74
2022/02/20 11:12:29;;;;;;;72.20;30.30;;;;;;;5.95;62.22;99268.50;131094;1266;108876;-75
2022/02/20 11:15:37;;;;;;;91.00;34.80;;;;;;;5.90;62.32;99272.05;130566;1267;109274;-75
2022/02/20 11:18:44;;;;;;;174.60;68.70;;;;;;;5.97;61.88;99272.15;130377;1267;108616;-72
2022/02/20 11:21:55;;;;;;;105.10;47.60;;;;;;;6.03;62.32;99275.83;130349;1267;108730;-72
2022/02/20 11:25:02;;;;;;;94.40;43.30;;;;;;;5.99;62.07;99281.18;130290;1268;108654;-73
2022/02/20 11:28:08;;;;;;;23.40;12.00;;;;;;;5.99;61.84;99285.35;130415;1267;107639;-72
2022/02/20 11:31:16;;;;;;;18.70;10.70;;;;;;;6.06;62.21;99282.54;130170;1268;206250;-74
2022/02/20 11:34:23;;;;;;;63.50;36.00;;;;;;;6.10;62.41;99284.31;130362;1268;108980;-74
2022/02/20 11:37:48;;;;;;;116.10;54.10;;;;;;;6.06;62.53;99280.97;130439;1268;108632;-82
2022/02/20 11:40:59;;;;;;;91.20;37.80;;;;;;;6.10;62.58;99286.41;132190;1267;107682;-72
2022/02/20 11:44:17;;;;;;;108.60;48.30;;;;;;;6.16;62.96;99277.36;130323;1268;108825;-78
2022/02/20 11:47:45;;;;;;;46.60;22.40;;;;;;;6.25;62.91;99270.29;130348;1268;108937;-75
2022/02/20 11:50:51;;;;;;;39.70;21.00;;;;;;;6.42;63.33;99272.69;130421;1268;108708;-74
2022/02/20 11:54:20;;;;;;;33.20;17.30;;;;;;;6.38;63.83;99277.17;130296;1268;108857;-75
2022/02/20 11:57:28;;;;;;;27.70;16.00;;;;;;;6.19;64.02;99278.11;130286;1268;108755;-77
2022/02/20 12:00:33;;;;;;;23.30;13.30;;;;;;;6.16;63.59;99276.88;130315;1268;108670;-76
2022/02/20 12:04:04;;;;;;;41.00;25.00;;;;;;;6.19;63.55;99284.69;130320;1268;108741;-74
2022/02/20 12:07:30;;;;;;;22.90;15.00;;;;;;;6.20;63.67;99281.42;130506;1267;108780;-76
2022/02/20 12:10:38;;;;;;;18.80;12.40;;;;;;;6.14;63.56;99283.95;130367;1267;108714;-76
2022/02/20 12:13:49;;;;;;;55.80;41.50;;;;;;;6.10;63.83;99289.21;130325;1267;108935;-75
2022/02/20 12:16:57;;;;;;;28.10;16.70;;;;;;;6.05;63.90;99284.57;130291;1267;108721;-75
2022/02/20 12:20:03;;;;;;;281.80;91.70;;;;;;;6.03;63.70;99287.65;130280;1267;109517;-74
2022/02/20 12:23:12;;;;;;;224.40;72.90;;;;;;;6.03;63.66;99288.20;130239;1267;108720;-73
2022/02/20 12:26:49;;;;;;;41.10;23.60;;;;;;;6.00;64.24;99290.00;130326;1267;108899;-74
2022/02/20 12:29:57;;;;;;;15.90;10.40;;;;;;;5.90;64.35;99292.51;130172;1270;108695;-75
2022/02/20 12:33:02;;;;;;;9.90;6.60;;;;;;;5.92;64.21;99294.14;130210;1270;107661;-74
2022/02/20 12:36:08;;;;;;;8.70;5.30;;;;;;;5.97;64.08;99297.19;130184;1270;108899;-80
2022/02/20 12:39:14;;;;;;;7.00;4.70;;;;;;;6.00;64.05;99297.27;130352;1270;108856;-81
2022/02/20 12:42:20;;;;;;;6.70;4.50;;;;;;;6.01;64.05;99292.56;130284;1269;108732;-80
2022/02/20 12:45:28;;;;;;;11.50;8.60;;;;;;;6.00;64.08;99290.23;130255;1270;108645;-85
2022/02/20 12:48:34;;;;;;;81.60;40.80;;;;;;;5.98;63.88;99290.27;130310;1270;108786;-82
2022/02/20 12:51:41;;;;;;;106.00;54.40;;;;;;;6.00;64.09;99291.99;130252;1270;108677;-80
2022/02/20 12:54:48;;;;;;;30.00;19.00;;;;;;;5.92;64.13;99290.61;130302;1270;108280;-83
2022/02/20 12:58:00;;;;;;;17.30;10.20;;;;;;;5.80;64.57;99295.23;130270;1270;108762;-80
2022/02/20 13:01:11;;;;;;;19.50;11.30;;;;;;;5.66;64.70;99295.84;130120;1270;108696;-77
2022/02/20 13:04:17;;;;;;;91.60;42.80;;;;;;;5.48;65.27;99300.35;130123;1270;107726;-78
2022/02/20 13:07:22;;;;;;;46.30;21.40;;;;;;;5.38;65.88;99297.65;130182;1270;108882;-78
2022/02/20 13:10:39;;;;;;;159.30;64.00;;;;;;;5.34;65.24;99297.77;130153;1270;108836;-76
2022/02/20 13:13:45;;;;;;;27.90;13.90;;;;;;;5.42;65.70;99303.21;130231;1270;109001;-81
2022/02/20 13:16:55;;;;;;;24.90;12.20;;;;;;;5.44;65.05;99302.85;130216;1269;108746;-80
2022/02/20 13:20:00;;;;;;;37.60;19.30;;;;;;;5.44;65.37;99302.33;130351;1269;108442;-82
2022/02/20 13:23:24;;;;;;;24.60;12.30;;;;;;;5.45;65.86;99305.46;130397;1270;108780;-82
2022/02/20 13:26:29;;;;;;;47.40;28.70;;;;;;;5.36;65.57;99303.50;130268;1270;108228;-83
2022/02/20 13:29:35;;;;;;;65.70;31.20;;;;;;;5.37;65.35;99298.24;130438;1267;108488;-79
2022/02/20 13:32:41;;;;;;;47.60;21.60;;;;;;;5.48;65.18;99290.70;130461;1266;108765;-77
2022/02/20 13:35:49;;;;;;;99.60;52.90;;;;;;;5.60;64.94;99289.56;130487;1267;108851;-78
2022/02/20 13:39:08;;;;;;;123.50;66.10;;;;;;;5.70;65.18;99289.52;130342;1267;109523;-84
2022/02/20 13:42:14;;;;;;;48.40;26.40;;;;;;;5.84;65.12;99293.30;130578;1267;108719;-81
2022/02/20 13:45:19;;;;;;;110.40;56.10;;;;;;;5.92;64.92;99295.36;130855;1267;108938;-81
2022/02/20 13:48:30;;;;;;;30.20;15.90;;;;;;;5.94;64.95;99297.16;131124;1267;108666;-81
2022/02/20 13:51:40;;;;;;;63.40;32.90;;;;;;;5.90;64.80;99296.58;130624;1267;108978;-78
2022/02/20 13:54:45;;;;;;;51.50;30.90;;;;;;;5.87;65.01;99295.86;130707;1267;107335;-86
2022/02/20 13:57:51;;;;;;;43.20;24.90;;;;;;;5.78;64.94;99302.48;130614;1267;108716;-86
2022/02/20 14:00:57;;;;;;;18.20;10.40;;;;;;;5.78;64.84;99299.89;130625;1267;108499;-83
2022/02/20 14:04:02;;;;;;;52.70;28.60;;;;;;;5.77;64.85;99292.92;130615;1267;108667;-85
2022/02/20 14:07:09;;;;;;;42.30;22.90;;;;;;;5.79;64.83;99298.90;130607;1267;108711;-84
2022/02/20 14:10:16;;;;;;;52.80;27.50;;;;;;;5.80;64.87;99295.09;130583;1267;108668;-83
2022/02/20 14:13:21;;;;;;;95.50;50.60;;;;;;;5.81;64.85;99292.55;130519;1267;108719;-87
2022/02/20 14:16:27;;;;;;;81.20;40.20;;;;;;;5.80;64.90;99293.70;130581;1266;106903;-83
2022/02/20 14:19:32;;;;;;;31.10;22.10;;;;;;;5.73;64.94;99292.42;130660;1267;108881;-85
2022/02/20 14:22:41;;;;;;;34.90;22.60;;;;;;;5.74;65.03;99288.59;130594;1267;108866;-84
2022/02/20 14:25:50;;;;;;;80.30;45.30;;;;;;;5.83;64.81;99285.82;130763;1267;108870;-81